createdAt,value
2018-01-18T00:01:06.527Z,97471.97
2018-01-18T00:03:34.894Z,97461.25
2018-01-18T00:06:04.204Z,97468.21
2018-01-18T00:08:32.602Z,97453.46
2018-01-18T00:11:00.860Z,97458.58
2018-01-18T00:13:29.870Z,97448.70
2018-01-18T00:15:58.119Z,97436.19
2018-01-18T00:18:26.370Z,97446.28
2018-01-18T00:20:55.118Z,97432.06
2018-01-18T00:23:23.361Z,97433.97
2018-01-18T00:25:51.655Z,97416.32
2018-01-18T00:28:20.003Z,97418.54
2018-01-18T00:30:48.295Z,97417.04
2018-01-18T00:33:17.315Z,97409.59
2018-01-18T00:35:45.562Z,97406.27
2018-01-18T00:38:13.802Z,97409.41
2018-01-18T00:40:42.855Z,97410.61
2018-01-18T00:43:11.104Z,97406.45
2018-01-18T00:45:39.363Z,97405.05
2018-01-18T00:48:08.383Z,97397.66
2018-01-18T00:50:36.659Z,97399.78
2018-01-18T00:53:05.679Z,97393.61
2018-01-18T00:55:34.144Z,97394.22
2018-01-18T00:58:03.279Z,97392.92
2018-01-18T01:00:31.713Z,97408.47
2018-01-18T01:02:59.974Z,97402.21
2018-01-18T01:05:28.238Z,97388.66
2018-01-18T01:07:57.251Z,97395.50
2018-01-18T01:10:26.276Z,97387.52
2018-01-18T01:12:54.515Z,97390.12
2018-01-18T01:15:22.806Z,97404.27
2018-01-18T01:17:51.052Z,97387.80
2018-01-18T01:20:19.331Z,97392.94
2018-01-18T01:22:47.588Z,97391.34
2018-01-18T01:25:16.617Z,97397.09
2018-01-18T01:27:44.859Z,97397.47
2018-01-18T01:30:13.119Z,97398.05
2018-01-18T01:32:41.354Z,97401.61
2018-01-18T01:35:09.621Z,97402.63
2018-01-18T01:37:37.902Z,97395.83
2018-01-18T01:40:06.231Z,97392.98
2018-01-18T01:42:35.299Z,97380.03
2018-01-18T01:45:03.605Z,97384.20
2018-01-18T01:47:31.915Z,97382.50
2018-01-18T01:50:00.956Z,97376.23
2018-01-18T01:52:29.309Z,97373.69
2018-01-18T01:54:58.332Z,97367.11
2018-01-18T01:57:27.404Z,97344.45
2018-01-18T01:59:55.671Z,97347.81
2018-01-18T02:02:23.906Z,97339.00
2018-01-18T02:04:52.942Z,97338.63
2018-01-18T02:07:21.227Z,97334.37
2018-01-18T02:09:49.496Z,97333.08
2018-01-18T02:12:18.522Z,97321.69
2018-01-18T02:14:46.760Z,97329.48
2018-01-18T02:17:15.041Z,97319.04
2018-01-18T02:19:43.286Z,97316.31
2018-01-18T02:22:11.552Z,97319.23
2018-01-18T02:24:39.799Z,97317.47
2018-01-18T02:27:08.824Z,97311.99
2018-01-18T02:29:37.102Z,97307.96
2018-01-18T02:32:05.426Z,97297.44
2018-01-18T02:34:34.549Z,97293.40
2018-01-18T02:37:02.928Z,97286.98
2018-01-18T02:39:31.283Z,97276.69
2018-01-18T02:41:59.564Z,97271.96
2018-01-18T02:44:28.644Z,97266.00
2018-01-18T02:46:56.909Z,97258.00
2018-01-18T02:49:25.917Z,97253.69
2018-01-18T02:51:54.187Z,97248.42
2018-01-18T02:54:23.208Z,97257.22
2018-01-18T02:56:52.279Z,97249.40
2018-01-18T02:59:21.371Z,97250.67
2018-01-18T03:01:49.628Z,97238.05
2018-01-18T03:04:17.875Z,97248.28
2018-01-18T03:06:46.127Z,97246.77
2018-01-18T03:09:14.372Z,97235.45
2018-01-18T03:11:43.398Z,97233.30
2018-01-18T03:14:11.643Z,97237.18
2018-01-18T03:16:39.918Z,97225.67
2018-01-18T03:19:08.145Z,97238.58
2018-01-18T03:21:36.475Z,97226.39
2018-01-18T03:24:05.592Z,97225.98
2018-01-18T03:26:33.974Z,97232.91
2018-01-18T03:29:02.331Z,97232.53
2018-01-18T03:31:30.608Z,97231.92
2018-01-18T03:33:59.621Z,97220.05
2018-01-18T03:36:28.659Z,97208.19
2018-01-18T03:38:56.911Z,97203.92
2018-01-18T03:41:25.941Z,97204.17
2018-01-18T03:43:54.202Z,97206.38
2018-01-18T03:46:22.494Z,97196.16
2018-01-18T03:48:50.820Z,97181.53
2018-01-18T03:51:19.839Z,97181.37
2018-01-18T03:53:48.097Z,97179.25
2018-01-18T03:56:16.336Z,97158.00
2018-01-18T03:58:44.590Z,97162.95
2018-01-18T04:01:12.842Z,97155.47
2018-01-18T04:03:41.878Z,97140.64
2018-01-18T04:06:10.105Z,97135.11
2018-01-18T04:08:38.344Z,97135.36
2018-01-18T04:11:06.608Z,97118.47
2018-01-18T04:13:34.928Z,97114.27
2018-01-18T04:16:03.258Z,97109.08
2018-01-18T04:18:31.846Z,97103.22
2018-01-18T04:21:00.073Z,97096.33
2018-01-18T04:23:29.076Z,97093.27
2018-01-18T04:25:57.320Z,97085.89
2018-01-18T04:28:25.595Z,97080.89
2018-01-18T04:30:53.834Z,97073.02
2018-01-18T04:33:22.098Z,97064.05
2018-01-18T04:35:50.396Z,97069.95
2018-01-18T04:38:18.659Z,97067.45
2018-01-18T04:40:46.903Z,97058.69
2018-01-18T04:43:15.175Z,97043.68
2018-01-18T04:45:43.433Z,97028.12
2018-01-18T04:48:11.690Z,97023.03
2018-01-18T04:50:39.949Z,96998.78
2018-01-18T04:53:08.203Z,96999.08
2018-01-18T04:55:36.503Z,96991.84
2018-01-18T04:58:04.795Z,96992.72
2018-01-18T05:00:33.113Z,96980.16
2018-01-18T05:03:01.703Z,96975.54
2018-01-18T05:05:30.762Z,96973.59
2018-01-18T05:07:59.010Z,96956.30
2018-01-18T05:10:27.276Z,96947.89
2018-01-18T05:12:55.611Z,96934.05
2018-01-18T05:15:23.812Z,96930.53
2018-01-18T05:17:52.116Z,96919.48
2018-01-18T05:20:20.399Z,96904.86
2018-01-18T05:22:48.643Z,96901.83
2018-01-18T05:25:17.801Z,96888.19
2018-01-18T05:27:46.043Z,96897.75
2018-01-18T05:30:14.312Z,96884.41
2018-01-18T05:32:43.368Z,96876.48
2018-01-18T05:35:11.911Z,96871.59
2018-01-18T05:37:40.400Z,96851.22
2018-01-18T05:40:09.044Z,96853.20
2018-01-18T05:42:37.461Z,96836.80
2018-01-18T05:45:06.132Z,96825.10
2018-01-18T05:47:34.455Z,96818.53
2018-01-18T05:50:02.874Z,96815.19
2018-01-18T05:52:31.312Z,96800.73
2018-01-18T05:54:59.700Z,96790.43
2018-01-18T05:57:28.014Z,96782.19
2018-01-18T05:59:56.267Z,96767.33
2018-01-18T06:02:25.284Z,96753.38
2018-01-18T06:04:53.564Z,96742.59
2018-01-18T06:07:22.592Z,96738.77
2018-01-18T06:09:50.894Z,96736.73
2018-01-18T06:12:19.132Z,96715.49
2018-01-18T06:14:48.168Z,96698.19
2018-01-18T06:17:16.415Z,96706.08
2018-01-18T06:19:44.847Z,96690.89
2018-01-18T06:22:13.207Z,96675.56
2018-01-18T06:24:41.531Z,96693.08
2018-01-18T06:27:09.796Z,96680.66
2018-01-18T06:29:38.205Z,96660.88
2018-01-18T06:32:07.463Z,96649.73
2018-01-18T06:34:35.799Z,96648.83
2018-01-18T06:37:04.197Z,96628.35
2018-01-18T06:39:32.536Z,96629.61
2018-01-18T06:42:00.795Z,96641.63
2018-01-18T06:44:29.044Z,96617.77
2018-01-18T06:46:58.074Z,96635.78
2018-01-18T06:49:26.319Z,96605.66
2018-01-18T06:51:54.586Z,96619.21
2018-01-18T06:54:22.847Z,96611.64
2018-01-18T06:56:51.144Z,96613.77
2018-01-18T06:59:19.387Z,96598.39
2018-01-18T07:01:47.664Z,96622.17
2018-01-18T07:04:15.937Z,96598.95
2018-01-18T07:06:44.241Z,96588.55
2018-01-18T07:09:13.240Z,96572.61
2018-01-18T07:11:41.523Z,96590.91
2018-01-18T07:14:09.771Z,96598.06
2018-01-18T07:16:38.039Z,96594.00
2018-01-18T07:19:07.101Z,96574.55
2018-01-18T07:21:35.375Z,96586.17
2018-01-18T07:24:03.631Z,96594.11
2018-01-18T07:26:32.704Z,96590.64
2018-01-18T07:29:01.776Z,96569.23
2018-01-18T07:31:29.992Z,96589.33
2018-01-18T07:33:58.243Z,96584.69
2018-01-18T07:36:26.512Z,96583.59
2018-01-18T07:38:55.531Z,96598.78
2018-01-18T07:41:23.782Z,96579.59
2018-01-18T07:43:52.805Z,96607.09
2018-01-18T07:46:21.824Z,96587.59
2018-01-18T07:48:50.832Z,96570.94
2018-01-18T07:51:19.104Z,96582.45
2018-01-18T07:53:53.586Z,96593.58
2018-01-18T07:56:21.845Z,96596.44
2018-01-18T07:58:50.856Z,96597.49
2018-01-18T08:01:19.127Z,96621.57
2018-01-18T08:03:53.745Z,96607.82
2018-01-18T08:06:22.007Z,96605.52
2018-01-18T08:08:50.252Z,96609.19
2018-01-18T08:11:19.277Z,96612.50
2018-01-18T08:13:47.557Z,96603.59
2018-01-18T08:16:15.847Z,96614.50
2018-01-18T08:18:44.155Z,96606.27
2018-01-18T08:21:12.451Z,96605.28
2018-01-18T08:23:40.741Z,96605.17
2018-01-18T08:26:08.980Z,96601.00
2018-01-18T08:28:38.010Z,96585.69
2018-01-18T08:31:06.256Z,96604.48
2018-01-18T08:33:34.510Z,96612.65
2018-01-18T08:36:02.768Z,96617.80
2018-01-18T08:38:31.060Z,96619.59
2018-01-18T08:40:59.348Z,96640.78
2018-01-18T08:43:27.620Z,96645.20
2018-01-18T08:45:56.623Z,96656.76
2018-01-18T08:48:25.656Z,96640.25
2018-01-18T08:50:53.898Z,96622.57
2018-01-18T08:53:22.167Z,96610.96
2018-01-18T08:55:50.406Z,96618.52
2018-01-18T08:58:19.439Z,96637.52
2018-01-18T09:00:47.696Z,96621.06
2018-01-18T09:03:16.746Z,96597.05
2018-01-18T09:05:45.022Z,96584.27
2018-01-18T09:08:13.324Z,96586.20
2018-01-18T09:10:41.628Z,96560.14
2018-01-18T09:13:09.979Z,96585.09
2018-01-18T09:15:38.264Z,96560.61
2018-01-18T09:18:06.530Z,96560.88
2018-01-18T09:20:35.542Z,96556.34
2018-01-18T09:23:04.591Z,96552.59
2018-01-18T09:25:32.835Z,96568.42
2018-01-18T09:28:01.868Z,96560.39
2018-01-18T09:30:30.118Z,96575.42
2018-01-18T09:32:58.384Z,96582.84
2018-01-18T09:35:26.634Z,96585.34
2018-01-18T09:37:54.900Z,96579.75
2018-01-18T09:40:23.990Z,96561.56
2018-01-18T09:42:52.287Z,96559.53
2018-01-18T09:45:20.613Z,96562.48
2018-01-18T09:47:48.894Z,96561.39
2018-01-18T09:50:17.163Z,96554.28
2018-01-18T09:52:46.175Z,96563.30
2018-01-18T09:55:15.204Z,96567.03
2018-01-18T09:57:43.443Z,96529.52
2018-01-18T10:00:11.706Z,96557.67
2018-01-18T10:02:40.722Z,96535.00
2018-01-18T10:05:08.983Z,96509.89
2018-01-18T10:07:37.262Z,96523.27
2018-01-18T10:10:05.620Z,96526.74
2018-01-18T10:12:33.859Z,96532.20
2018-01-18T10:15:02.181Z,96520.38
2018-01-18T10:17:30.435Z,96507.11
2018-01-18T10:19:58.706Z,96506.33
2018-01-18T10:22:26.958Z,96500.48
2018-01-18T10:24:55.267Z,96508.67
2018-01-18T10:27:24.280Z,96513.44
2018-01-18T10:29:52.548Z,96516.84
2018-01-18T10:32:20.800Z,96498.88
2018-01-18T10:34:49.067Z,96498.19
2018-01-18T10:37:17.344Z,96519.81
2018-01-18T10:39:46.396Z,96519.53
2018-01-18T10:42:14.652Z,96502.57
2018-01-18T10:44:42.919Z,96496.78
2018-01-18T10:47:11.927Z,96500.28
2018-01-18T10:49:40.979Z,96497.51
2018-01-18T10:52:09.232Z,96502.17
2018-01-18T10:54:37.499Z,96465.15
2018-01-18T10:57:06.532Z,96466.83
2018-01-18T10:59:34.803Z,96492.38
2018-01-18T11:02:03.104Z,96477.50
2018-01-18T11:04:31.387Z,96480.37
2018-01-18T11:06:59.651Z,96476.89
2018-01-18T11:09:27.925Z,96473.28
2018-01-18T11:11:56.934Z,96481.38
2018-01-18T11:14:25.212Z,96461.00
2018-01-18T11:16:53.475Z,96466.85
2018-01-18T11:19:21.720Z,96491.41
2018-01-18T11:21:50.004Z,96476.09
2018-01-18T11:24:19.011Z,96475.04
2018-01-18T11:26:48.037Z,96458.56
2018-01-18T11:29:17.048Z,96458.91
2018-01-18T11:31:45.315Z,96448.52
2018-01-18T11:34:14.344Z,96457.23
2018-01-18T11:36:42.636Z,96428.44
2018-01-18T11:39:10.892Z,96423.30
2018-01-18T11:41:39.164Z,96431.41
2018-01-18T11:44:07.424Z,96445.19
2018-01-18T11:46:35.775Z,96429.93
2018-01-18T11:49:04.814Z,96425.03
2018-01-18T11:51:33.133Z,96413.37
2018-01-18T11:54:02.207Z,96427.55
2018-01-18T11:56:30.472Z,96410.44
2018-01-18T11:58:59.481Z,96414.45
2018-01-18T12:01:27.804Z,96393.11
2018-01-18T12:03:56.108Z,96405.83
2018-01-18T12:06:25.143Z,96399.48
2018-01-18T12:08:53.383Z,96394.47
2018-01-18T12:11:21.664Z,96394.08
2018-01-18T12:13:49.913Z,96401.37
2018-01-18T12:16:18.961Z,96399.80
2018-01-18T12:18:47.230Z,96401.36
2018-01-18T12:21:16.247Z,96406.23
2018-01-18T12:23:44.512Z,96412.75
2018-01-18T12:26:13.543Z,96406.53
2018-01-18T12:28:41.801Z,96410.91
2018-01-18T12:31:10.074Z,96392.90
2018-01-18T12:33:38.330Z,96391.57
2018-01-18T12:36:06.786Z,96387.86
2018-01-18T12:38:35.836Z,96379.91
2018-01-18T12:41:04.099Z,96380.95
2018-01-18T12:43:33.557Z,96377.91
2018-01-18T12:46:01.840Z,96372.47
2018-01-18T12:48:30.234Z,96372.09
2018-01-18T12:50:58.654Z,96374.61
2018-01-18T12:53:27.234Z,96366.09
2018-01-18T12:55:55.655Z,96356.44
2018-01-18T12:58:24.739Z,96356.02
2018-01-18T13:00:53.171Z,96354.17
2018-01-18T13:03:21.970Z,96369.02
2018-01-18T13:05:50.953Z,96372.46
2018-01-18T13:08:19.622Z,96361.19
2018-01-18T13:10:48.394Z,96361.34
2018-01-18T13:13:17.045Z,96349.94
2018-01-18T13:15:45.696Z,96343.44
2018-01-18T13:18:14.366Z,96343.58
2018-01-18T13:20:43.479Z,96353.13
2018-01-18T13:23:12.321Z,96359.34
2018-01-18T13:25:40.920Z,96348.34
2018-01-18T13:28:10.524Z,96346.09
2018-01-18T13:30:38.784Z,96352.02
2018-01-18T13:33:07.364Z,96346.03
2018-01-18T13:35:36.740Z,96343.96
2018-01-18T13:38:05.409Z,96360.23
2018-01-18T13:40:34.283Z,96347.63
2018-01-18T13:43:03.476Z,96353.61
2018-01-18T13:45:32.099Z,96349.98
2018-01-18T13:48:01.354Z,96354.16
2018-01-18T13:50:29.974Z,96380.53
2018-01-18T13:52:58.677Z,96369.27
2018-01-18T13:55:27.026Z,96360.66
2018-01-18T13:57:55.691Z,96368.70
2018-01-18T14:00:24.919Z,96374.43
2018-01-18T14:02:53.902Z,96373.13
2018-01-18T14:05:23.207Z,96380.69
2018-01-18T14:07:52.873Z,96387.30
2018-01-18T14:10:21.512Z,96379.20
2018-01-18T14:12:50.446Z,96380.94
2018-01-18T14:15:19.455Z,96400.58
2018-01-18T14:17:48.523Z,96397.77
2018-01-18T14:20:17.068Z,96423.38
2018-01-18T14:22:45.384Z,96409.83
2018-01-18T14:25:13.673Z,96422.05
2018-01-18T14:27:41.993Z,96426.94
2018-01-18T14:30:10.853Z,96433.72
2018-01-18T14:32:39.268Z,96447.41
2018-01-18T14:35:09.084Z,96461.72
2018-01-18T14:37:38.914Z,96471.37
2018-01-18T14:40:07.332Z,96463.48
2018-01-18T14:42:35.617Z,96473.14
2018-01-18T14:45:04.256Z,96482.80
2018-01-18T14:50:01.596Z,96498.92
2018-01-18T14:52:29.855Z,96501.02
2018-01-18T14:54:58.128Z,96504.41
2018-01-18T14:57:26.720Z,96502.51
2018-01-18T14:59:55.924Z,96525.27
2018-01-18T15:02:24.618Z,96524.95
2018-01-18T15:04:53.750Z,96519.04
2018-01-18T15:07:22.092Z,96524.17
2018-01-18T15:09:50.471Z,96528.71
2018-01-18T15:12:18.729Z,96514.28
2018-01-18T15:14:47.304Z,96517.24
2018-01-18T15:17:16.810Z,96513.08
2018-01-18T15:19:45.171Z,96510.79
2018-01-18T15:22:13.438Z,96533.49
2018-01-18T15:24:41.937Z,96526.19
2018-01-18T15:27:10.619Z,96531.93
2018-01-18T15:29:38.892Z,96511.98
2018-01-18T15:32:07.449Z,96508.58
2018-01-18T15:34:35.759Z,96509.83
2018-01-18T15:37:05.858Z,96503.33
2018-01-18T15:39:34.419Z,96509.06
2018-01-18T15:42:03.021Z,96501.36
2018-01-18T15:44:31.352Z,96497.88
2018-01-18T15:47:00.426Z,96499.19
2018-01-18T15:49:29.597Z,96499.40
2018-01-18T15:51:58.653Z,96513.16
2018-01-18T15:54:27.332Z,96542.03
2018-01-18T15:56:55.729Z,96551.13
2018-01-18T15:59:23.975Z,96554.70
2018-01-18T16:01:53.233Z,96556.47
2018-01-18T16:04:21.716Z,96564.55
2018-01-18T16:06:50.254Z,96576.81
2018-01-18T16:09:18.543Z,96574.95
2018-01-18T16:11:46.954Z,96556.84
2018-01-18T16:14:15.301Z,96557.37
2018-01-18T16:16:43.837Z,96556.27
2018-01-18T16:19:12.273Z,96584.39
2018-01-18T16:21:40.683Z,96583.36
2018-01-18T16:24:09.064Z,96578.94
2018-01-18T16:26:37.358Z,96592.23
2018-01-18T16:29:05.617Z,96589.25
2018-01-18T16:31:34.074Z,96600.39
2018-01-18T16:34:02.317Z,96607.64
2018-01-18T16:36:30.604Z,96614.47
2018-01-18T16:38:58.886Z,96618.72
2018-01-18T16:41:27.196Z,96611.02
2018-01-18T16:43:55.522Z,96599.83
2018-01-18T16:46:24.112Z,96607.42
2018-01-18T16:48:52.823Z,96603.79
2018-01-18T16:51:21.269Z,96596.82
2018-01-18T16:53:49.666Z,96592.46
2018-01-18T16:56:18.008Z,96583.09
2018-01-18T16:58:47.071Z,96597.23
2018-01-18T17:01:15.475Z,96590.39
2018-01-18T17:03:43.838Z,96596.01
2018-01-18T17:06:12.524Z,96609.05
2018-01-18T17:08:40.915Z,96615.31
2018-01-18T17:11:09.171Z,96641.48
2018-01-18T17:13:38.211Z,96641.28
2018-01-18T17:16:06.523Z,96626.84
2018-01-18T17:18:34.834Z,96618.09
2018-01-18T17:21:03.167Z,96624.80
2018-01-18T17:23:31.456Z,96617.53
2018-01-18T17:25:59.898Z,96618.34
2018-01-18T17:28:28.395Z,96605.14
2018-01-18T17:30:56.706Z,96597.34
2018-01-18T17:33:25.311Z,96600.42
2018-01-18T17:35:54.456Z,96609.90
2018-01-18T17:38:22.738Z,96599.55
2018-01-18T17:40:51.096Z,96601.13
2018-01-18T17:43:20.131Z,96605.05
2018-01-18T17:45:48.395Z,96600.91
2018-01-18T17:48:16.672Z,96607.56
2018-01-18T17:50:44.924Z,96615.61
2018-01-18T17:53:13.202Z,96623.95
2018-01-18T17:55:41.466Z,96665.79
2018-01-18T17:58:10.521Z,96703.34
2018-01-18T18:00:38.799Z,96713.78
2018-01-18T18:03:07.103Z,96725.88
2018-01-18T18:05:36.911Z,96713.55
2018-01-18T18:08:05.205Z,96714.88
2018-01-18T18:10:33.528Z,96700.95
2018-01-18T18:13:01.854Z,96685.67
2018-01-18T18:15:30.892Z,96690.04
2018-01-18T18:17:59.167Z,96694.63
2018-01-18T18:20:27.424Z,96727.47
2018-01-18T18:22:55.738Z,96725.16
2018-01-18T18:25:23.996Z,96745.72
2018-01-18T18:27:53.031Z,96750.67
2018-01-18T18:30:21.324Z,96768.45
2018-01-18T18:32:49.591Z,96765.81
2018-01-18T18:35:18.626Z,96766.45
2018-01-18T18:37:46.887Z,96760.97
2018-01-18T18:40:15.912Z,96731.28
2018-01-18T18:42:44.209Z,96726.78
2018-01-18T18:45:13.211Z,96736.33
2018-01-18T18:47:41.539Z,96748.44
2018-01-18T18:50:09.824Z,96721.29
2018-01-18T18:52:38.114Z,96708.03
2018-01-18T18:55:06.403Z,96707.25
2018-01-18T18:57:34.677Z,96722.27
2018-01-18T19:00:02.943Z,96695.80
2018-01-18T19:02:31.993Z,96717.20
2018-01-18T19:05:00.263Z,96724.77
2018-01-18T19:07:29.280Z,96726.28
2018-01-18T19:09:57.549Z,96717.00
2018-01-18T19:12:25.807Z,96724.02
2018-01-18T19:14:54.902Z,96721.09
2018-01-18T19:17:23.946Z,96731.91
2018-01-18T19:19:52.221Z,96729.78
2018-01-18T19:22:20.484Z,96733.75
2018-01-18T19:24:48.878Z,96728.38
2018-01-18T19:27:17.971Z,96732.08
2018-01-18T19:29:47.107Z,96739.41
2018-01-18T19:32:15.406Z,96740.47
2018-01-18T19:34:43.675Z,96730.76
2018-01-18T19:37:12.691Z,96732.34
2018-01-18T19:39:41.732Z,96736.58
2018-01-18T19:42:10.057Z,96734.53
2018-01-18T19:44:38.370Z,96732.91
2018-01-18T19:47:07.375Z,96738.25
2018-01-18T19:49:36.675Z,96731.24
2018-01-18T19:52:05.006Z,96738.35
2018-01-18T19:54:33.389Z,96735.37
2018-01-18T19:57:01.681Z,96739.73
2018-01-18T19:59:29.946Z,96739.71
2018-01-18T20:01:59.014Z,96744.09
2018-01-18T20:04:27.323Z,96741.73
2018-01-18T20:06:55.571Z,96738.09
2018-01-18T20:09:23.894Z,96740.86
2018-01-18T20:11:52.170Z,96726.20
2018-01-18T20:14:20.530Z,96729.95
2018-01-18T20:16:48.852Z,96739.94
2018-01-18T20:19:17.216Z,96742.14
2018-01-18T20:21:45.467Z,96734.55
2018-01-18T20:24:14.478Z,96730.77
2018-01-18T20:26:43.572Z,96725.41
2018-01-18T20:29:12.603Z,96725.25
2018-01-18T20:31:41.699Z,96733.55
2018-01-18T20:34:10.731Z,96738.36
2018-01-18T20:36:39.980Z,96751.20
2018-01-18T20:39:08.305Z,96755.47
2018-01-18T20:41:37.394Z,96755.38
2018-01-18T20:44:05.668Z,96754.68
2018-01-18T20:46:33.942Z,96752.73
2018-01-18T20:49:03.559Z,96756.53
2018-01-18T20:51:31.872Z,96759.06
2018-01-18T20:54:00.934Z,96778.41
2018-01-18T20:56:30.081Z,96765.17
2018-01-18T20:58:58.325Z,96779.66
2018-01-18T21:01:27.427Z,96757.78
2018-01-18T21:03:56.465Z,96740.27
2018-01-18T21:06:24.734Z,96762.61
2018-01-18T21:08:53.034Z,96742.52
2018-01-18T21:11:22.116Z,96732.57
2018-01-18T21:13:50.392Z,96716.22
2018-01-18T21:16:18.671Z,96728.56
2018-01-18T21:18:46.924Z,96742.34
2018-01-18T21:21:15.238Z,96749.30
2018-01-18T21:23:43.479Z,96727.25
2018-01-18T21:26:12.564Z,96708.08
2018-01-18T21:28:40.803Z,96734.19
2018-01-18T21:31:09.110Z,96727.19
2018-01-18T21:33:37.492Z,96702.80
2018-01-18T21:36:05.816Z,96691.13
2018-01-18T21:38:34.156Z,96689.41
2018-01-18T21:41:02.423Z,96689.03
2018-01-18T21:43:31.519Z,96688.77
2018-01-18T21:46:00.752Z,96682.52
2018-01-18T21:48:29.041Z,96687.19
2018-01-18T21:50:57.331Z,96689.29
2018-01-18T21:53:25.630Z,96703.11
2018-01-18T21:55:53.902Z,96696.14
2018-01-18T21:58:23.580Z,96690.75
2018-01-18T22:00:51.827Z,96674.52
2018-01-18T22:03:20.107Z,96698.47
2018-01-18T22:05:48.350Z,96707.76
2018-01-18T22:08:16.669Z,96709.88
2018-01-18T22:10:44.968Z,96729.94
2018-01-18T22:13:13.274Z,96728.67
2018-01-18T22:15:41.534Z,96728.72
2018-01-18T22:18:11.343Z,96724.16
2018-01-18T22:20:40.375Z,96720.05
2018-01-18T22:23:08.732Z,96720.84
2018-01-18T22:25:38.410Z,96724.44
2018-01-18T22:28:08.237Z,96734.89
2018-01-18T22:30:36.534Z,96736.72
2018-01-18T22:33:04.776Z,96731.31
2018-01-18T22:35:33.768Z,96720.33
2018-01-18T22:38:02.045Z,96704.27
2018-01-18T22:40:30.295Z,96697.71
2018-01-18T22:42:58.567Z,96701.66
2018-01-18T22:45:26.852Z,96704.45
2018-01-18T22:47:55.146Z,96697.53
2018-01-18T22:50:23.437Z,96692.73
2018-01-18T22:52:52.455Z,96696.16
2018-01-18T22:55:20.719Z,96695.47
2018-01-18T22:57:49.739Z,96687.64
2018-01-18T23:00:21.315Z,96687.78
2018-01-18T23:02:49.625Z,96690.61
2018-01-18T23:05:17.871Z,96693.25
2018-01-18T23:07:46.915Z,96695.99
2018-01-18T23:10:15.923Z,96700.64
2018-01-18T23:12:44.198Z,96722.34
2018-01-18T23:15:12.512Z,96716.27
2018-01-18T23:17:40.805Z,96715.42
2018-01-18T23:20:09.141Z,96701.45
2018-01-18T23:22:37.469Z,96696.06
2018-01-18T23:25:05.769Z,96684.28
2018-01-18T23:27:34.775Z,96690.88
2018-01-18T23:30:03.051Z,96677.11
2018-01-18T23:32:31.296Z,96671.77
2018-01-18T23:35:00.429Z,96681.72
2018-01-18T23:37:28.713Z,96670.63
2018-01-18T23:39:56.992Z,96682.38
2018-01-18T23:42:26.046Z,96676.30
2018-01-18T23:44:54.306Z,96668.91
2018-01-18T23:47:22.555Z,96660.63
2018-01-18T23:49:50.831Z,96667.16
2018-01-18T23:52:19.076Z,96661.37
2018-01-18T23:54:47.330Z,96653.58
2018-01-18T23:57:16.355Z,96661.73
2018-01-18T23:59:45.379Z,96664.59
